sensor_id;sensor_type;location;lat;lon;timestamp;pressure;altitude;pressure_sealevel;temperature;humidity
73918;BME280;63639;52.280;5.162;2022-12-10T00:01:28;100933.51;;;3.85;68.59
73918;BME280;63639;52.280;5.162;2022-12-10T00:03:54;100937.31;;;3.77;68.90
73918;BME280;63639;52.280;5.162;2022-12-10T00:06:23;100935.56;;;3.73;69.20
73918;BME280;63639;52.280;5.162;2022-12-10T00:08:51;100939.53;;;3.43;70.13
73918;BME280;63639;52.280;5.162;2022-12-10T00:11:19;100941.61;;;3.26;70.58
73918;BME280;63639;52.280;5.162;2022-12-10T00:13:48;100946.46;;;3.28;70.53
73918;BME280;63639;52.280;5.162;2022-12-10T00:16:16;100944.87;;;3.20;70.75
73918;BME280;63639;52.280;5.162;2022-12-10T00:18:45;100947.25;;;3.49;70.13
73918;BME280;63639;52.280;5.162;2022-12-10T00:21:15;100947.81;;;3.63;69.70
73918;BME280;63639;52.280;5.162;2022-12-10T00:23:42;100952.89;;;3.76;69.35
73918;BME280;63639;52.280;5.162;2022-12-10T00:26:10;100953.83;;;3.75;68.71
73918;BME280;63639;52.280;5.162;2022-12-10T00:28:38;100952.25;;;3.65;69.22
73918;BME280;63639;52.280;5.162;2022-12-10T00:31:07;100948.31;;;3.50;69.34
73918;BME280;63639;52.280;5.162;2022-12-10T00:33:35;100944.98;;;3.41;69.63
73918;BME280;63639;52.280;5.162;2022-12-10T00:36:04;100946.32;;;3.55;69.59
73918;BME280;63639;52.280;5.162;2022-12-10T00:38:31;100941.40;;;3.45;69.26
73918;BME280;63639;52.280;5.162;2022-12-10T00:40:58;100942.82;;;3.28;69.89
73918;BME280;63639;52.280;5.162;2022-12-10T00:43:26;100945.00;;;3.04;70.68
73918;BME280;63639;52.280;5.162;2022-12-10T00:45:53;100946.48;;;3.25;70.80
73918;BME280;63639;52.280;5.162;2022-12-10T00:48:20;100946.69;;;3.26;70.27
73918;BME280;63639;52.280;5.162;2022-12-10T00:50:55;100946.52;;;3.28;70.33
73918;BME280;63639;52.280;5.162;2022-12-10T00:53:22;100948.02;;;3.35;70.22
73918;BME280;63639;52.280;5.162;2022-12-10T00:55:49;100947.91;;;3.30;70.72
73918;BME280;63639;52.280;5.162;2022-12-10T00:58:17;100951.23;;;3.10;71.41
73918;BME280;63639;52.280;5.162;2022-12-10T01:00:44;100950.09;;;3.07;72.06
73918;BME280;63639;52.280;5.162;2022-12-10T01:03:12;100953.81;;;2.90;72.66
73918;BME280;63639;52.280;5.162;2022-12-10T01:05:39;100953.40;;;2.77;73.49
73918;BME280;63639;52.280;5.162;2022-12-10T01:08:06;100953.78;;;3.11;72.82
73918;BME280;63639;52.280;5.162;2022-12-10T01:10:33;100953.88;;;3.40;71.60
73918;BME280;63639;52.280;5.162;2022-12-10T01:13:00;100957.26;;;3.23;71.45
73918;BME280;63639;52.280;5.162;2022-12-10T01:15:27;100962.58;;;3.07;72.24
73918;BME280;63639;52.280;5.162;2022-12-10T01:17:53;100966.13;;;3.08;72.24
73918;BME280;63639;52.280;5.162;2022-12-10T01:20:21;100966.09;;;3.26;71.79
73918;BME280;63639;52.280;5.162;2022-12-10T01:22:47;100966.91;;;3.25;72.20
73918;BME280;63639;52.280;5.162;2022-12-10T01:25:14;100977.23;;;3.46;71.58
73918;BME280;63639;52.280;5.162;2022-12-10T01:27:40;100975.08;;;3.40;71.40
73918;BME280;63639;52.280;5.162;2022-12-10T01:30:09;100973.81;;;3.47;71.24
73918;BME280;63639;52.280;5.162;2022-12-10T01:32:35;100971.18;;;3.31;71.27
73918;BME280;63639;52.280;5.162;2022-12-10T01:35:03;100974.96;;;3.39;72.07
73918;BME280;63639;52.280;5.162;2022-12-10T01:37:30;100981.46;;;3.31;71.39
73918;BME280;63639;52.280;5.162;2022-12-10T01:39:57;100987.71;;;3.26;71.46
73918;BME280;63639;52.280;5.162;2022-12-10T01:42:24;100993.84;;;3.05;71.99
73918;BME280;63639;52.280;5.162;2022-12-10T01:45:10;100991.67;;;3.40;71.55
73918;BME280;63639;52.280;5.162;2022-12-10T01:47:38;101000.13;;;3.35;70.99
73918;BME280;63639;52.280;5.162;2022-12-10T01:50:07;101001.40;;;2.76;73.13
73918;BME280;63639;52.280;5.162;2022-12-10T01:52:35;101006.31;;;2.37;74.97
73918;BME280;63639;52.280;5.162;2022-12-10T01:55:08;101013.49;;;2.53;75.04
73918;BME280;63639;52.280;5.162;2022-12-10T01:57:35;101013.11;;;2.50;74.75
73918;BME280;63639;52.280;5.162;2022-12-10T02:00:05;101013.55;;;2.73;75.02
73918;BME280;63639;52.280;5.162;2022-12-10T02:02:40;101010.40;;;2.30;75.33
73918;BME280;63639;52.280;5.162;2022-12-10T02:05:19;101005.57;;;2.77;74.81
73918;BME280;63639;52.280;5.162;2022-12-10T02:08:03;101005.81;;;2.77;74.18
73918;BME280;63639;52.280;5.162;2022-12-10T02:10:41;101005.30;;;2.86;74.63
73918;BME280;63639;52.280;5.162;2022-12-10T02:13:16;101000.63;;;2.90;73.60
73918;BME280;63639;52.280;5.162;2022-12-10T02:15:50;101002.93;;;2.50;74.70
73918;BME280;63639;52.280;5.162;2022-12-10T02:18:20;101005.23;;;2.38;75.31
73918;BME280;63639;52.280;5.162;2022-12-10T02:20:50;101002.07;;;2.86;74.67
73918;BME280;63639;52.280;5.162;2022-12-10T02:23:22;100997.98;;;2.87;74.02
73918;BME280;63639;52.280;5.162;2022-12-10T02:25:56;100992.70;;;3.14;73.48
73918;BME280;63639;52.280;5.162;2022-12-10T02:28:32;100991.70;;;3.09;73.05
73918;BME280;63639;52.280;5.162;2022-12-10T02:31:01;100994.24;;;3.23;72.91
73918;BME280;63639;52.280;5.162;2022-12-10T02:33:31;100995.77;;;3.22;72.58
73918;BME280;63639;52.280;5.162;2022-12-10T02:35:59;100998.28;;;3.11;73.26
73918;BME280;63639;52.280;5.162;2022-12-10T02:38:28;100997.02;;;3.06;73.29
73918;BME280;63639;52.280;5.162;2022-12-10T02:40:59;100998.90;;;2.84;73.99
73918;BME280;63639;52.280;5.162;2022-12-10T02:43:28;100998.41;;;2.72;74.92
73918;BME280;63639;52.280;5.162;2022-12-10T02:45:56;101002.51;;;3.05;74.47
73918;BME280;63639;52.280;5.162;2022-12-10T02:48:24;101001.67;;;3.17;73.46
73918;BME280;63639;52.280;5.162;2022-12-10T02:50:51;101001.73;;;3.15;73.90
73918;BME280;63639;52.280;5.162;2022-12-10T02:53:18;101003.93;;;3.37;73.48
73918;BME280;63639;52.280;5.162;2022-12-10T02:55:59;101002.18;;;3.54;72.80
73918;BME280;63639;52.280;5.162;2022-12-10T02:58:40;101004.42;;;3.72;71.83
73918;BME280;63639;52.280;5.162;2022-12-10T03:01:14;101002.50;;;3.65;71.69
73918;BME280;63639;52.280;5.162;2022-12-10T03:03:49;101001.91;;;3.57;72.26
73918;BME280;63639;52.280;5.162;2022-12-10T03:06:22;101000.45;;;3.70;71.73
73918;BME280;63639;52.280;5.162;2022-12-10T03:08:58;101009.15;;;3.49;72.07
73918;BME280;63639;52.280;5.162;2022-12-10T03:11:27;101011.73;;;3.39;72.53
73918;BME280;63639;52.280;5.162;2022-12-10T03:13:57;101015.27;;;3.30;73.13
73918;BME280;63639;52.280;5.162;2022-12-10T03:16:29;101008.57;;;3.46;72.73
73918;BME280;63639;52.280;5.162;2022-12-10T03:19:00;101007.08;;;3.48;73.06
73918;BME280;63639;52.280;5.162;2022-12-10T03:21:30;101000.96;;;3.75;71.98
73918;BME280;63639;52.280;5.162;2022-12-10T03:24:00;100996.14;;;3.79;71.86
73918;BME280;63639;52.280;5.162;2022-12-10T03:26:27;100995.65;;;3.39;72.34
73918;BME280;63639;52.280;5.162;2022-12-10T03:28:58;100996.70;;;3.61;72.20
73918;BME280;63639;52.280;5.162;2022-12-10T03:31:27;100995.84;;;3.56;72.20
73918;BME280;63639;52.280;5.162;2022-12-10T03:33:55;100993.50;;;3.71;72.31
73918;BME280;63639;52.280;5.162;2022-12-10T03:36:24;100986.77;;;3.66;71.72
73918;BME280;63639;52.280;5.162;2022-12-10T03:38:52;100978.57;;;3.29;72.87
73918;BME280;63639;52.280;5.162;2022-12-10T03:41:19;100977.89;;;3.26;73.31
73918;BME280;63639;52.280;5.162;2022-12-10T03:43:54;100975.05;;;3.26;73.59
73918;BME280;63639;52.280;5.162;2022-12-10T03:46:22;100971.30;;;3.36;73.36
73918;BME280;63639;52.280;5.162;2022-12-10T03:48:50;100971.57;;;3.41;72.87
73918;BME280;63639;52.280;5.162;2022-12-10T03:51:17;100974.22;;;3.54;72.86
73918;BME280;63639;52.280;5.162;2022-12-10T03:53:44;100980.56;;;3.50;72.81
73918;BME280;63639;52.280;5.162;2022-12-10T03:56:12;100976.40;;;3.25;72.94
73918;BME280;63639;52.280;5.162;2022-12-10T03:58:38;100977.35;;;3.24;73.35
73918;BME280;63639;52.280;5.162;2022-12-10T04:01:05;100977.65;;;3.36;73.00
73918;BME280;63639;52.280;5.162;2022-12-10T04:03:34;100977.84;;;3.13;73.65
73918;BME280;63639;52.280;5.162;2022-12-10T04:06:02;100985.02;;;2.99;74.01
73918;BME280;63639;52.280;5.162;2022-12-10T04:08:29;100982.10;;;3.07;73.94
73918;BME280;63639;52.280;5.162;2022-12-10T04:11:02;100984.74;;;3.07;74.13
73918;BME280;63639;52.280;5.162;2022-12-10T04:13:31;100989.02;;;3.04;74.11
73918;BME280;63639;52.280;5.162;2022-12-10T04:15:58;100989.35;;;3.15;74.25
73918;BME280;63639;52.280;5.162;2022-12-10T04:18:25;100988.25;;;3.10;73.96
73918;BME280;63639;52.280;5.162;2022-12-10T04:20:52;100988.10;;;3.06;73.82
73918;BME280;63639;52.280;5.162;2022-12-10T04:23:19;100990.90;;;2.91;74.34
73918;BME280;63639;52.280;5.162;2022-12-10T04:25:46;100991.83;;;2.84;74.79
73918;BME280;63639;52.280;5.162;2022-12-10T04:28:13;100990.53;;;2.74;75.08
73918;BME280;63639;52.280;5.162;2022-12-10T04:30:40;100993.30;;;2.74;75.18
73918;BME280;63639;52.280;5.162;2022-12-10T04:33:06;101009.33;;;2.57;75.62
73918;BME280;63639;52.280;5.162;2022-12-10T04:35:33;101008.24;;;2.31;76.76
73918;BME280;63639;52.280;5.162;2022-12-10T04:38:00;101005.64;;;2.07;77.82
73918;BME280;63639;52.280;5.162;2022-12-10T04:40:27;101006.86;;;2.00;78.27
73918;BME280;63639;52.280;5.162;2022-12-10T04:42:54;101009.61;;;2.01;78.05
73918;BME280;63639;52.280;5.162;2022-12-10T04:45:20;101005.91;;;1.98;78.13
73918;BME280;63639;52.280;5.162;2022-12-10T04:47:47;101003.99;;;2.04;78.42
73918;BME280;63639;52.280;5.162;2022-12-10T04:50:14;101006.44;;;2.08;78.16
73918;BME280;63639;52.280;5.162;2022-12-10T04:52:41;101002.26;;;2.20;77.90
73918;BME280;63639;52.280;5.162;2022-12-10T04:55:08;100996.98;;;2.68;76.79
73918;BME280;63639;52.280;5.162;2022-12-10T04:57:35;100994.68;;;2.96;75.60
73918;BME280;63639;52.280;5.162;2022-12-10T05:00:04;100995.70;;;3.17;74.08
73918;BME280;63639;52.280;5.162;2022-12-10T05:02:31;101000.93;;;3.11;74.13
73918;BME280;63639;52.280;5.162;2022-12-10T05:04:58;101001.58;;;3.02;74.28
73918;BME280;63639;52.280;5.162;2022-12-10T05:07:25;101009.59;;;3.05;73.87
73918;BME280;63639;52.280;5.162;2022-12-10T05:09:52;101002.27;;;3.26;73.77
73918;BME280;63639;52.280;5.162;2022-12-10T05:12:19;101005.13;;;3.36;72.82
73918;BME280;63639;52.280;5.162;2022-12-10T05:14:45;101004.44;;;3.33;72.76
73918;BME280;63639;52.280;5.162;2022-12-10T05:17:12;101004.78;;;3.23;72.90
73918;BME280;63639;52.280;5.162;2022-12-10T05:19:38;101002.48;;;3.39;72.33
73918;BME280;63639;52.280;5.162;2022-12-10T05:22:05;101003.22;;;3.44;72.04
73918;BME280;63639;52.280;5.162;2022-12-10T05:24:32;101006.06;;;3.18;72.80
73918;BME280;63639;52.280;5.162;2022-12-10T05:26:58;101004.22;;;3.18;73.06
73918;BME280;63639;52.280;5.162;2022-12-10T05:29:25;101001.37;;;3.40;72.60
73918;BME280;63639;52.280;5.162;2022-12-10T05:31:52;101005.44;;;3.32;72.17
73918;BME280;63639;52.280;5.162;2022-12-10T05:34:19;101007.89;;;3.21;72.42
73918;BME280;63639;52.280;5.162;2022-12-10T05:36:46;101005.40;;;3.06;72.72
73918;BME280;63639;52.280;5.162;2022-12-10T05:39:13;101007.45;;;3.05;72.95
73918;BME280;63639;52.280;5.162;2022-12-10T05:41:40;101008.93;;;2.86;73.81
73918;BME280;63639;52.280;5.162;2022-12-10T05:44:08;101007.45;;;2.83;74.19
73918;BME280;63639;52.280;5.162;2022-12-10T05:46:36;101009.66;;;2.84;74.40
73918;BME280;63639;52.280;5.162;2022-12-10T05:49:05;101006.54;;;2.84;74.50
73918;BME280;63639;52.280;5.162;2022-12-10T05:51:34;101009.48;;;3.23;74.35
73918;BME280;63639;52.280;5.162;2022-12-10T05:54:02;101011.06;;;3.20;72.95
73918;BME280;63639;52.280;5.162;2022-12-10T05:56:29;101009.98;;;3.37;72.45
73918;BME280;63639;52.280;5.162;2022-12-10T05:58:58;101010.63;;;3.35;72.13
73918;BME280;63639;52.280;5.162;2022-12-10T06:01:28;101013.50;;;2.87;73.09
73918;BME280;63639;52.280;5.162;2022-12-10T06:03:57;101020.37;;;2.61;74.08
73918;BME280;63639;52.280;5.162;2022-12-10T06:06:26;101019.54;;;2.65;74.10
73918;BME280;63639;52.280;5.162;2022-12-10T06:08:53;101017.76;;;2.51;74.48
73918;BME280;63639;52.280;5.162;2022-12-10T06:11:21;101015.54;;;2.75;74.17
73918;BME280;63639;52.280;5.162;2022-12-10T06:13:48;101016.15;;;3.16;73.28
73918;BME280;63639;52.280;5.162;2022-12-10T06:16:15;101017.25;;;3.32;72.02
73918;BME280;63639;52.280;5.162;2022-12-10T06:18:42;101017.97;;;3.50;71.79
73918;BME280;63639;52.280;5.162;2022-12-10T06:21:11;101018.47;;;3.50;71.75
73918;BME280;63639;52.280;5.162;2022-12-10T06:23:39;101019.05;;;3.66;70.52
73918;BME280;63639;52.280;5.162;2022-12-10T06:26:07;101022.11;;;3.73;69.84
73918;BME280;63639;52.280;5.162;2022-12-10T06:28:34;101024.16;;;3.88;69.91
73918;BME280;63639;52.280;5.162;2022-12-10T06:31:01;101029.37;;;3.66;69.57
73918;BME280;63639;52.280;5.162;2022-12-10T06:33:28;101032.90;;;3.47;70.19
73918;BME280;63639;52.280;5.162;2022-12-10T06:35:55;101037.06;;;2.67;72.62
73918;BME280;63639;52.280;5.162;2022-12-10T06:38:21;101043.67;;;2.64;73.28
73918;BME280;63639;52.280;5.162;2022-12-10T06:40:49;101045.56;;;2.57;74.05
73918;BME280;63639;52.280;5.162;2022-12-10T06:43:16;101052.65;;;2.52;74.36
73918;BME280;63639;52.280;5.162;2022-12-10T06:45:42;101058.69;;;2.41;74.28
73918;BME280;63639;52.280;5.162;2022-12-10T06:48:10;101058.26;;;2.28;74.18
73918;BME280;63639;52.280;5.162;2022-12-10T06:50:36;101052.71;;;2.45;74.65
73918;BME280;63639;52.280;5.162;2022-12-10T06:53:03;101047.05;;;2.69;74.00
73918;BME280;63639;52.280;5.162;2022-12-10T06:55:30;101044.80;;;2.48;74.02
73918;BME280;63639;52.280;5.162;2022-12-10T06:57:57;101043.70;;;2.50;74.12
73918;BME280;63639;52.280;5.162;2022-12-10T07:00:24;101049.44;;;2.54;73.89
73918;BME280;63639;52.280;5.162;2022-12-10T07:02:51;101054.38;;;2.67;74.07
73918;BME280;63639;52.280;5.162;2022-12-10T07:05:18;101060.95;;;2.45;74.07
73918;BME280;63639;52.280;5.162;2022-12-10T07:07:45;101059.27;;;2.41;74.73
73918;BME280;63639;52.280;5.162;2022-12-10T07:10:12;101060.31;;;2.79;74.00
73918;BME280;63639;52.280;5.162;2022-12-10T07:12:38;101063.98;;;2.79;73.44
73918;BME280;63639;52.280;5.162;2022-12-10T07:15:06;101063.91;;;2.86;73.21
73918;BME280;63639;52.280;5.162;2022-12-10T07:17:34;101068.31;;;2.97;72.82
73918;BME280;63639;52.280;5.162;2022-12-10T07:20:01;101067.43;;;3.14;72.32
73918;BME280;63639;52.280;5.162;2022-12-10T07:22:27;101075.80;;;3.21;71.71
73918;BME280;63639;52.280;5.162;2022-12-10T07:24:54;101080.63;;;3.45;71.86
73918;BME280;63639;52.280;5.162;2022-12-10T07:27:21;101079.74;;;3.34;70.62
73918;BME280;63639;52.280;5.162;2022-12-10T07:29:47;101078.39;;;3.37;71.09
73918;BME280;63639;52.280;5.162;2022-12-10T07:32:15;101079.50;;;3.40;70.85
73918;BME280;63639;52.280;5.162;2022-12-10T07:34:41;101080.65;;;3.59;70.90
73918;BME280;63639;52.280;5.162;2022-12-10T07:37:09;101082.04;;;3.70;69.96
73918;BME280;63639;52.280;5.162;2022-12-10T07:39:35;101078.76;;;3.56;69.80
73918;BME280;63639;52.280;5.162;2022-12-10T07:42:02;101081.31;;;3.45;70.32
73918;BME280;63639;52.280;5.162;2022-12-10T07:44:29;101078.64;;;3.46;70.86
73918;BME280;63639;52.280;5.162;2022-12-10T07:46:56;101076.26;;;3.41;70.91
73918;BME280;63639;52.280;5.162;2022-12-10T07:49:23;101078.23;;;3.60;70.66
73918;BME280;63639;52.280;5.162;2022-12-10T07:51:50;101080.29;;;3.74;70.22
73918;BME280;63639;52.280;5.162;2022-12-10T07:54:17;101081.08;;;3.96;69.44
73918;BME280;63639;52.280;5.162;2022-12-10T07:56:44;101082.73;;;4.06;68.92
73918;BME280;63639;52.280;5.162;2022-12-10T07:59:11;101083.19;;;4.22;68.57
73918;BME280;63639;52.280;5.162;2022-12-10T08:01:38;101086.00;;;4.13;67.87
73918;BME280;63639;52.280;5.162;2022-12-10T08:04:05;101085.81;;;3.86;68.21
73918;BME280;63639;52.280;5.162;2022-12-10T08:06:32;101086.98;;;3.47;69.27
73918;BME280;63639;52.280;5.162;2022-12-10T08:08:59;101089.50;;;3.46;69.98
73918;BME280;63639;52.280;5.162;2022-12-10T08:11:27;101090.86;;;3.58;70.27
73918;BME280;63639;52.280;5.162;2022-12-10T08:13:54;101087.51;;;3.47;70.57
73918;BME280;63639;52.280;5.162;2022-12-10T08:16:22;101092.93;;;3.38;70.70
73918;BME280;63639;52.280;5.162;2022-12-10T08:18:50;101098.93;;;2.94;71.55
73918;BME280;63639;52.280;5.162;2022-12-10T08:21:18;101105.83;;;2.71;72.67
73918;BME280;63639;52.280;5.162;2022-12-10T08:23:46;101105.17;;;2.84;72.97
73918;BME280;63639;52.280;5.162;2022-12-10T08:26:15;101106.24;;;2.84;73.44
73918;BME280;63639;52.280;5.162;2022-12-10T08:28:43;101099.86;;;3.32;72.96
73918;BME280;63639;52.280;5.162;2022-12-10T08:31:11;101103.27;;;3.68;71.23
73918;BME280;63639;52.280;5.162;2022-12-10T08:33:39;101106.87;;;3.75;70.02
73918;BME280;63639;52.280;5.162;2022-12-10T08:36:07;101110.48;;;3.82;69.99
73918;BME280;63639;52.280;5.162;2022-12-10T08:38:35;101117.25;;;3.78;69.29
73918;BME280;63639;52.280;5.162;2022-12-10T08:41:06;101120.57;;;3.56;69.95
73918;BME280;63639;52.280;5.162;2022-12-10T08:43:34;101124.76;;;3.85;70.01
73918;BME280;63639;52.280;5.162;2022-12-10T08:46:01;101132.13;;;4.10;69.72
73918;BME280;63639;52.280;5.162;2022-12-10T08:48:28;101135.13;;;4.28;68.65
73918;BME280;63639;52.280;5.162;2022-12-10T08:50:55;101137.60;;;4.26;68.10
73918;BME280;63639;52.280;5.162;2022-12-10T08:53:22;101144.54;;;4.25;68.06
73918;BME280;63639;52.280;5.162;2022-12-10T08:55:50;101147.19;;;3.97;68.26
73918;BME280;63639;52.280;5.162;2022-12-10T08:58:16;101141.86;;;3.94;69.28
73918;BME280;63639;52.280;5.162;2022-12-10T09:00:44;101141.69;;;4.06;68.79
73918;BME280;63639;52.280;5.162;2022-12-10T09:03:11;101140.71;;;4.12;68.64
73918;BME280;63639;52.280;5.162;2022-12-10T09:05:38;101144.66;;;4.22;68.33
73918;BME280;63639;52.280;5.162;2022-12-10T09:08:04;101144.32;;;4.05;68.32
73918;BME280;63639;52.280;5.162;2022-12-10T09:10:31;101149.39;;;3.57;69.96
73918;BME280;63639;52.280;5.162;2022-12-10T09:12:58;101153.81;;;3.51;70.71
73918;BME280;63639;52.280;5.162;2022-12-10T09:15:25;101155.26;;;3.50;70.57
73918;BME280;63639;52.280;5.162;2022-12-10T09:17:51;101159.28;;;3.22;71.89
73918;BME280;63639;52.280;5.162;2022-12-10T09:20:18;101158.94;;;2.97;72.92
73918;BME280;63639;52.280;5.162;2022-12-10T09:22:45;101154.72;;;3.30;73.19
73918;BME280;63639;52.280;5.162;2022-12-10T09:25:12;101159.19;;;3.57;71.78
73918;BME280;63639;52.280;5.162;2022-12-10T09:27:39;101156.12;;;3.89;71.22
73918;BME280;63639;52.280;5.162;2022-12-10T09:30:08;101164.12;;;4.03;69.56
73918;BME280;63639;52.280;5.162;2022-12-10T09:32:35;101168.58;;;4.22;68.58
73918;BME280;63639;52.280;5.162;2022-12-10T09:35:03;101171.16;;;4.44;68.72
73918;BME280;63639;52.280;5.162;2022-12-10T09:37:30;101172.22;;;4.59;67.74
73918;BME280;63639;52.280;5.162;2022-12-10T09:39:57;101176.85;;;4.68;66.65
73918;BME280;63639;52.280;5.162;2022-12-10T09:42:34;101179.64;;;4.81;65.87
73918;BME280;63639;52.280;5.162;2022-12-10T09:45:09;101177.01;;;4.53;66.70
73918;BME280;63639;52.280;5.162;2022-12-10T09:47:44;101175.10;;;4.17;67.72
73918;BME280;63639;52.280;5.162;2022-12-10T09:50:19;101171.91;;;4.06;68.89
73918;BME280;63639;52.280;5.162;2022-12-10T09:52:47;101171.09;;;3.80;69.53
73918;BME280;63639;52.280;5.162;2022-12-10T09:55:18;101180.69;;;3.74;69.47
73918;BME280;63639;52.280;5.162;2022-12-10T09:57:49;101179.40;;;3.69;69.48
73918;BME280;63639;52.280;5.162;2022-12-10T10:00:20;101177.37;;;3.98;69.77
73918;BME280;63639;52.280;5.162;2022-12-10T10:02:48;101178.34;;;4.15;68.84
73918;BME280;63639;52.280;5.162;2022-12-10T10:05:21;101179.92;;;3.99;68.61
73918;BME280;63639;52.280;5.162;2022-12-10T10:07:50;101184.83;;;3.98;69.30
73918;BME280;63639;52.280;5.162;2022-12-10T10:10:23;101187.40;;;4.03;68.86
73918;BME280;63639;52.280;5.162;2022-12-10T10:12:52;101184.88;;;3.94;69.19
73918;BME280;63639;52.280;5.162;2022-12-10T10:15:24;101188.23;;;3.64;69.75
73918;BME280;63639;52.280;5.162;2022-12-10T10:17:53;101183.57;;;3.86;69.84
73918;BME280;63639;52.280;5.162;2022-12-10T10:20:22;101187.49;;;3.62;69.79
73918;BME280;63639;52.280;5.162;2022-12-10T10:22:50;101186.87;;;3.67;70.66
73918;BME280;63639;52.280;5.162;2022-12-10T10:25:18;101179.29;;;3.80;70.27
73918;BME280;63639;52.280;5.162;2022-12-10T10:27:45;101175.03;;;3.81;70.13
73918;BME280;63639;52.280;5.162;2022-12-10T10:30:14;101180.18;;;4.08;69.21
73918;BME280;63639;52.280;5.162;2022-12-10T10:32:48;101182.44;;;4.03;68.68
73918;BME280;63639;52.280;5.162;2022-12-10T10:35:26;101187.52;;;3.83;68.99
73918;BME280;63639;52.280;5.162;2022-12-10T10:37:58;101186.07;;;3.48;70.47
73918;BME280;63639;52.280;5.162;2022-12-10T10:40:28;101185.94;;;3.45;71.08
73918;BME280;63639;52.280;5.162;2022-12-10T10:42:56;101190.29;;;3.63;71.28
73918;BME280;63639;52.280;5.162;2022-12-10T10:45:35;101195.29;;;3.28;71.17
73918;BME280;63639;52.280;5.162;2022-12-10T10:48:06;101192.68;;;3.46;71.52
73918;BME280;63639;52.280;5.162;2022-12-10T10:50:37;101195.62;;;3.66;70.54
73918;BME280;63639;52.280;5.162;2022-12-10T10:53:21;101191.27;;;3.93;69.59
73918;BME280;63639;52.280;5.162;2022-12-10T10:55:49;101194.27;;;3.72;69.24
73918;BME280;63639;52.280;5.162;2022-12-10T10:58:18;101183.50;;;3.88;69.81
73918;BME280;63639;52.280;5.162;2022-12-10T11:00:54;101183.63;;;3.91;69.46
73918;BME280;63639;52.280;5.162;2022-12-10T11:03:22;101185.16;;;3.88;69.45
73918;BME280;63639;52.280;5.162;2022-12-10T11:05:48;101191.41;;;3.93;69.52
73918;BME280;63639;52.280;5.162;2022-12-10T11:08:17;101194.22;;;4.02;69.27
73918;BME280;63639;52.280;5.162;2022-12-10T11:10:47;101198.50;;;4.16;68.86
73918;BME280;63639;52.280;5.162;2022-12-10T11:13:22;101199.57;;;3.93;68.37
73918;BME280;63639;52.280;5.162;2022-12-10T11:15:55;101198.58;;;3.72;70.14
73918;BME280;63639;52.280;5.162;2022-12-10T11:18:26;101191.75;;;3.57;70.37
73918;BME280;63639;52.280;5.162;2022-12-10T11:20:58;101195.17;;;3.71;70.13
73918;BME280;63639;52.280;5.162;2022-12-10T11:23:28;101196.09;;;3.86;69.71
73918;BME280;63639;52.280;5.162;2022-12-10T11:26:02;101184.32;;;3.93;70.09
73918;BME280;63639;52.280;5.162;2022-12-10T11:28:39;101186.76;;;4.04;68.58
73918;BME280;63639;52.280;5.162;2022-12-10T11:31:20;101184.98;;;3.79;69.73
73918;BME280;63639;52.280;5.162;2022-12-10T11:33:57;101182.88;;;3.62;70.06
73918;BME280;63639;52.280;5.162;2022-12-10T11:36:33;101181.51;;;3.54;70.42
73918;BME280;63639;52.280;5.162;2022-12-10T11:39:10;101182.88;;;3.49;71.15
73918;BME280;63639;52.280;5.162;2022-12-10T11:41:46;101177.09;;;3.55;70.58
73918;BME280;63639;52.280;5.162;2022-12-10T11:44:22;101172.18;;;3.57;70.26
73918;BME280;63639;52.280;5.162;2022-12-10T11:47:01;101172.09;;;3.76;70.23
73918;BME280;63639;52.280;5.162;2022-12-10T11:49:39;101188.25;;;3.77;69.63
73918;BME280;63639;52.280;5.162;2022-12-10T11:52:16;101187.67;;;3.67;70.25
73918;BME280;63639;52.280;5.162;2022-12-10T11:54:58;101192.92;;;3.05;71.96
73918;BME280;63639;52.280;5.162;2022-12-10T11:57:37;101189.48;;;3.27;72.47
73918;BME280;63639;52.280;5.162;2022-12-10T12:00:18;101189.00;;;3.52;71.99
73918;BME280;63639;52.280;5.162;2022-12-10T12:03:03;101180.64;;;3.88;70.98
73918;BME280;63639;52.280;5.162;2022-12-10T12:05:45;101184.36;;;4.15;69.34
73918;BME280;63639;52.280;5.162;2022-12-10T12:08:19;101182.98;;;4.04;68.66
73918;BME280;63639;52.280;5.162;2022-12-10T12:11:01;101190.93;;;3.83;69.50
73918;BME280;63639;52.280;5.162;2022-12-10T12:13:35;101186.67;;;3.84;69.63
73918;BME280;63639;52.280;5.162;2022-12-10T12:16:06;101188.16;;;3.64;70.82
73918;BME280;63639;52.280;5.162;2022-12-10T12:18:42;101189.84;;;3.68;70.50
73918;BME280;63639;52.280;5.162;2022-12-10T12:21:12;101181.47;;;3.86;70.02
73918;BME280;63639;52.280;5.162;2022-12-10T12:23:46;101185.68;;;3.92;69.55
73918;BME280;63639;52.280;5.162;2022-12-10T12:26:19;101187.84;;;3.63;70.41
73918;BME280;63639;52.280;5.162;2022-12-10T12:28:51;101189.28;;;3.65;70.57
73918;BME280;63639;52.280;5.162;2022-12-10T12:31:24;101181.70;;;3.39;71.60
73918;BME280;63639;52.280;5.162;2022-12-10T12:33:56;101179.12;;;3.70;71.50
73918;BME280;63639;52.280;5.162;2022-12-10T12:36:28;101172.09;;;3.89;71.07
73918;BME280;63639;52.280;5.162;2022-12-10T12:39:00;101172.93;;;4.15;70.28
73918;BME280;63639;52.280;5.162;2022-12-10T12:41:34;101170.65;;;4.23;69.20
73918;BME280;63639;52.280;5.162;2022-12-10T12:44:10;101172.17;;;4.15;69.13
73918;BME280;63639;52.280;5.162;2022-12-10T12:46:42;101173.03;;;4.24;69.02
73918;BME280;63639;52.280;5.162;2022-12-10T12:49:16;101173.28;;;4.23;69.08
73918;BME280;63639;52.280;5.162;2022-12-10T12:51:49;101170.51;;;4.25;68.48
73918;BME280;63639;52.280;5.162;2022-12-10T12:54:18;101170.71;;;4.30;68.06
73918;BME280;63639;52.280;5.162;2022-12-10T12:56:57;101173.32;;;4.06;68.81
73918;BME280;63639;52.280;5.162;2022-12-10T12:59:34;101178.49;;;3.32;71.27
73918;BME280;63639;52.280;5.162;2022-12-10T13:02:15;101177.97;;;3.38;71.94
73918;BME280;63639;52.280;5.162;2022-12-10T13:04:44;101177.03;;;3.59;71.56
73918;BME280;63639;52.280;5.162;2022-12-10T13:07:44;101182.71;;;3.69;71.44
73918;BME280;63639;52.280;5.162;2022-12-10T13:10:23;101179.33;;;3.72;71.60
73918;BME280;63639;52.280;5.162;2022-12-10T13:13:06;101172.03;;;4.06;70.92